AirNav   Everest Fuels
 
 876 users online  

07CO Comanche Creek Airport
Kiowa, Colorado, USA

GOING TO KIOWA?


FAA INFORMATION EFFECTIVE 21 MAY 2020

Location

FAA Identifier: 07CO
Lat/Long: 39-15-49.0000N 104-25-37.0000W
39-15.816667N 104-25.616667W
39.2636111,-104.4269444
(estimated)
Elevation: 6620 ft. / 2018 m (estimated)
From city: 6 miles SW of KIOWA, CO
Time zone: UTC -6 (UTC -7 during Standard Time)
Zip code: 80117

Airport Operations

Airport use: Private use. Permission required prior to landing
Activation date: 07/2004
Control tower: no
ARTCC: DENVER CENTER
FSS: DENVER FLIGHT SERVICE STATION
Attendance: UNATNDD
Wind indicator: yes
Segmented circle: no

Nearby radio navigation aids

VOR radial/distance  VOR name  Freq  Var
BRKr019/21.4BLACK FOREST VOR/DME112.5008E
FQFr150/27.1FALCON VORTAC116.3011E
DENr154/34.7DENVER VOR/DME117.9008E
FCSr012/38.2BUTTS VOR/DME108.8012E
DVVr158/38.9MILE HIGH VORTAC114.7008E

 
NDB name  Hdg/Dist  Freq  Var  ID
IRONHORSE011/38.333512EIHS .. .... ...

Airport Services

Runway Information

Runway 2/20

Dimensions: 3100 x 75 ft. / 945 x 23 m
Surface: turf
RUNWAY 2  RUNWAY 20
Traffic pattern: rightleft

Airport Ownership and Management from official FAA records

Ownership: Privately-owned
Owner: JACK & KETA CRALL
27280 MAUL ROAD
KIOWA, CO 80117
Phone 303-648-9650
Manager: JACK T. CRALL
27280 MAUL ROAD
KIOWA, CO 80117
Phone 303-648-9650

Additional Remarks

FOR CD CTC DENVER APCH AT 303-342-1916.

Instrument Procedures

There are no published instrument procedures at 07CO.

Some nearby airports with instrument procedures:

KAPA - Centennial Airport (27 nm NW)
KCOS - City of Colorado Springs Municipal Airport (30 nm SW)
KBKF - Buckley Air Force Base (30 nm NW)
KCFO - Colorado Air and Space Port Airport (32 nm N)
KDEN - Denver International Airport (38 nm N)
 
Loc | Ops | Rwys | IFR | FBO | Links
Com | Nav | Svcs | Stats | Notes

AirBoss

 
Area around 07CO (Comanche Creek Airport)
 
Road maps at: MapQuest Bing Google
 
Aerial photo
No photo
 
Sectional chart

 
Airport distance calculator
Flying to Comanche Creek Airport? Find the distance to fly.

From to 07CO

Sunrise and sunset
Times for 02-Jun-2020
 Local
(UTC-6)
 Zulu
(UTC)
Morning civil twilight05:0211:02
Sunrise05:3311:33
Sunset20:1802:18
Evening civil twilight20:5002:50

Current date and time
Zulu (UTC)  03-Jun-2020 03:04:02
Local (UTC-6)  02-Jun-2020 21:04:02
 
METAR
KMNH 
10nm W 
030248Z AUTO 06003KT 10SM CLR 17/05 A3031 RMK AO2
TAF
KAFF 
25nm SW 
021900Z 0219/0401 01012KT 9999 SCT100 BKN130 QNH3020INS BECMG 0223/0224 03012KT 9999 VCTS SCT080CB BKN120 QNH3019INS TEMPO 0301/0303 VRB20G30KT -TSRA SCT050 BKN070CB BECMG 0304/0305 01010G15KT 9999 NSW SCT120 SCT250 510204 QNH3023INS WND 01009KT AFT 0307 BECMG 0314/0315 15009KT 9999 SCT250 QNH3022INS WND 16012G18KT AFT 0318 BECMG 0320/0321 15012G18KT 9999 VCTS SCT050 BKN100CB QNH3015INS TEMPO 0322/0401 VRB25G35KT -TSRAGR BKN050CB TX28/0222Z TN11/0311Z LAST NO AMDS AFT 0301 NEXT 0311
KAPA 
27nm NW 
021734Z 0218/0318 05012KT P6SM SCT100 SCT220 FM030000 08012KT P6SM FEW070 SCT100 FM030300 16010KT P6SM SCT070 BKN100 FM030700 19007KT P6SM FEW100 SCT220 FM031500 30007KT P6SM SCT220
KCOS 
30nm SW 
030210Z 0302/0324 12007KT P6SM SCT100 SCT200 FM030300 32006KT P6SM SCT100 SCT200 FM030700 36006KT P6SM SCT200 FM031600 17007KT P6SM SCT100 SCT200 FM032100 19011KT P6SM VCTS SCT080CB BKN120
KBKF 
31nm NW 
030104Z 0301/0407 09009KT 9999 SCT120 QNH3005INS TX30/0321Z TN11/0312Z
NOTAMs
Click for the latest NOTAMs
NOTAMs are issued by the DoD/FAA and will open in a separate window not controlled by AirNav.

 

 
 

Would you like to see your business listed on this page?

 If your business provides an interesting product or service to pilots, flight crews, aircraft, or users of the Comanche Creek Airport, you should consider listing it here.  To start the listing process, click on the button below
 
Add a business
 

Other Pages about Comanche Creek Airport

Update a link
 
Copyright © AirNav, LLC. All rights reserved. Privacy Policy  Contact